Time;durP1;ratioP1;P1;durP2;ratioP2;P2;SDS_P1;SDS_P2;PMS_P1;PMS_P2;Temp;Humidity;BMP_temperature;BMP_pressure;BME280_temperature;BME280_humidity;BME280_pressure;Samples;Min_cycle;Max_cycle;Signal;HPM_P1;HPM_P2
2021/09/23 00:02:48;;;;;;;;;16.00;15.25;;;;;18.61;50.77;101648.06;5069523;28;45837;-76
2021/09/23 00:05:16;;;;;;;;;15.75;15.00;;;;;18.67;51.30;101666.13;5074205;28;45779;-76
2021/09/23 00:07:43;;;;;;;;;16.25;14.25;;;;;18.60;50.63;101646.41;5074566;27;45535;-78
2021/09/23 00:10:11;;;;;;;;;14.50;14.00;;;;;18.66;50.64;101654.66;5075493;27;45961;-81
2021/09/23 00:12:37;;;;;;;;;15.75;14.00;;;;;18.57;51.04;101633.41;5074997;27;45677;-78
2021/09/23 00:15:03;;;;;;;;;17.00;15.75;;;;;18.46;50.56;101613.09;5075492;27;45580;-77
2021/09/23 00:17:29;;;;;;;;;16.00;14.50;;;;;18.64;50.83;101630.06;5074740;27;45620;-79
2021/09/23 00:19:55;;;;;;;;;18.50;17.25;;;;;18.68;50.91;101638.56;5075177;28;46395;-76
2021/09/23 00:22:20;;;;;;;;;17.75;17.25;;;;;18.55;51.19;101614.94;5074277;28;45647;-81
2021/09/23 00:24:45;;;;;;;;;21.00;19.00;;;;;18.64;51.07;101634.53;5077271;27;45599;-78
2021/09/23 00:27:11;;;;;;;;;22.75;21.50;;;;;18.53;51.54;101629.28;5080779;27;46283;-79
2021/09/23 00:32:58;;;;;;;;;18.00;16.75;;;;;18.47;51.91;101630.66;5077955;28;45613;-77
2021/09/23 00:35:24;;;;;;;;;17.25;16.75;;;;;18.44;51.94;101637.09;5078338;28;45798;-79
2021/09/23 00:37:50;;;;;;;;;18.00;15.75;;;;;18.39;51.99;101639.31;5077612;28;45641;-78
2021/09/23 00:40:17;;;;;;;;;21.25;18.75;;;;;18.36;51.98;101646.69;5077259;27;45652;-81
2021/09/23 00:42:47;;;;;;;;;20.75;18.00;;;;;18.31;52.14;101639.13;5077342;28;45635;-78
2021/09/23 00:45:14;;;;;;;;;22.50;20.00;;;;;18.28;52.66;101634.09;5077413;28;45838;-76
2021/09/23 00:47:40;;;;;;;;;18.75;17.75;;;;;18.23;52.30;101633.66;5077157;27;46275;-77
2021/09/23 00:50:07;;;;;;;;;19.00;17.50;;;;;18.21;52.64;101634.75;5076752;27;45577;-78
2021/09/23 00:52:35;;;;;;;;;23.00;20.00;;;;;18.17;52.61;101636.84;5076966;28;45986;-77
2021/09/23 00:55:00;;;;;;;;;18.25;16.50;;;;;18.03;52.76;101619.47;5077370;28;45723;-78
2021/09/23 00:57:26;;;;;;;;;19.00;18.50;;;;;18.12;52.98;101627.59;5076638;27;46992;-78
2021/09/23 01:03:13;;;;;;;;;20.00;18.50;;;;;18.07;53.04;101619.22;5069905;28;45838;-82
2021/09/23 01:05:39;;;;;;;;;18.75;17.75;;;;;18.00;52.73;101606.47;5077144;27;45517;-78
2021/09/23 01:08:05;;;;;;;;;14.00;13.00;;;;;18.01;53.16;101604.66;5076789;27;46443;-78
2021/09/23 01:10:31;;;;;;;;;17.00;15.50;;;;;17.91;52.95;101590.53;5076702;28;46160;-77
2021/09/23 01:12:57;;;;;;;;;16.00;15.00;;;;;17.98;52.86;101604.91;5076791;27;45658;-77
2021/09/23 01:15:22;;;;;;;;;14.00;14.00;;;;;17.85;52.65;101575.97;5076580;27;45560;-76
2021/09/23 01:17:48;;;;;;;;;14.00;13.00;;;;;17.93;52.76;101594.72;5076438;28;45658;-80
2021/09/23 01:20:14;;;;;;;;;15.50;14.00;;;;;17.90;52.48;101578.22;5076170;27;46001;-77
2021/09/23 01:22:40;;;;;;;;;13.50;12.50;;;;;17.90;52.71;101576.44;5076740;27;45586;-79
2021/09/23 01:25:06;;;;;;;;;14.75;13.25;;;;;17.80;52.92;101554.34;5076499;27;45863;-79
2021/09/23 01:27:33;;;;;;;;;13.25;12.00;;;;;17.81;52.99;101558.66;5076491;27;45906;-79
2021/09/23 01:33:20;;;;;;;;;15.50;14.75;;;;;17.83;52.70;101559.34;5078846;28;45677;-88
2021/09/23 01:35:45;;;;;;;;;15.50;14.75;;;;;17.79;52.64;101547.34;5078068;28;45576;-85
2021/09/23 01:38:11;;;;;;;;;18.25;15.50;;;;;17.85;52.90;101562.72;5077796;28;45580;-88
2021/09/23 01:40:37;;;;;;;;;14.00;13.00;;;;;17.87;52.95;101549.31;5077958;27;46006;-89
2021/09/23 01:43:03;;;;;;;;;18.75;17.25;;;;;17.81;52.62;101544.56;5076730;27;45797;-79
2021/09/23 01:45:28;;;;;;;;;20.50;16.25;;;;;17.59;52.57;101503.16;5076704;27;45528;-78
2021/09/23 01:47:54;;;;;;;;;18.00;17.00;;;;;17.84;53.02;101537.19;5075942;27;45544;-77
2021/09/23 01:50:20;;;;;;;;;21.25;19.50;;;;;17.75;53.01;101523.91;5075976;28;45599;-81
2021/09/23 01:52:45;;;;;;;;;18.25;17.00;;;;;17.85;52.97;101545.97;5075910;27;45522;-78
2021/09/23 01:55:11;;;;;;;;;18.75;17.25;;;;;17.81;53.49;101544.56;5076352;27;45561;-80
2021/09/23 01:57:36;;;;;;;;;16.25;15.75;;;;;17.76;53.42;101534.34;5076094;27;46326;-79
2021/09/23 02:03:23;;;;;;;;;18.00;17.25;;;;;17.70;53.84;101526.94;5074738;28;45741;-78
2021/09/23 02:05:48;;;;;;;;;19.25;18.25;;;;;17.67;53.94;101535.13;5076698;27;45786;-78
2021/09/23 02:08:14;;;;;;;;;19.00;17.00;;;;;17.63;53.60;101539.03;5076437;27;46403;-79
2021/09/23 02:10:39;;;;;;;;;21.75;20.25;;;;;17.58;53.76;101536.75;5077296;27;46045;-80
2021/09/23 02:13:05;;;;;;;;;20.00;16.75;;;;;17.56;54.32;101535.19;5076984;27;45509;-80
2021/09/23 02:18:52;;;;;;;;;19.00;18.00;;;;;17.39;54.25;101506.63;5076601;28;45458;-78
2021/09/23 02:21:18;;;;;;;;;18.50;17.50;;;;;17.44;54.01;101517.69;5075401;27;45565;-77
2021/09/23 02:23:43;;;;;;;;;18.00;17.75;;;;;17.44;54.20;101517.69;5075749;27;45620;-80
2021/09/23 02:26:09;;;;;;;;;16.25;15.75;;;;;17.32;54.32;101508.16;5075449;27;45558;-77
2021/09/23 02:28:36;;;;;;;;;16.25;16.25;;;;;17.36;54.74;101515.72;5075469;28;45532;-78
2021/09/23 02:31:03;;;;;;;;;19.75;18.00;;;;;17.32;54.30;101514.28;5075860;27;46182;-78
2021/09/23 02:33:28;;;;;;;;;21.00;19.25;;;;;17.29;54.47;101503.09;5076537;27;45631;-76
2021/09/23 02:35:54;;;;;;;;;17.75;17.00;;;;;17.22;54.70;101499.31;5075948;27;45596;-77
2021/09/23 02:38:19;;;;;;;;;18.50;17.75;;;;;17.13;54.71;101491.16;5075716;27;47341;-77
2021/09/23 02:40:46;;;;;;;;;19.00;17.50;;;;;17.16;54.85;101498.88;5075341;27;46182;-77
2021/09/23 02:43:13;;;;;;;;;16.00;15.50;;;;;17.16;55.06;101501.50;5074237;28;45488;-78
2021/09/23 02:49:00;;;;;;;;;18.00;16.75;;;;;17.10;55.28;101509.13;5074425;28;45932;-78
2021/09/23 02:51:26;;;;;;;;;19.00;16.50;;;;;17.07;55.47;101501.41;5075295;27;45681;-77
2021/09/23 02:53:51;;;;;;;;;16.75;16.75;;;;;17.08;55.38;101514.53;5074893;28;45639;-77
2021/09/23 02:56:17;;;;;;;;;17.75;16.75;;;;;16.98;55.47;101497.75;5075222;27;45452;-77
2021/09/23 02:58:44;;;;;;;;;17.00;16.00;;;;;17.04;55.46;101512.28;5074891;27;46434;-76
2021/09/23 03:01:10;;;;;;;;;20.75;16.50;;;;;17.03;55.68;101511.44;5074993;27;47273;-79
2021/09/23 03:03:36;;;;;;;;;19.25;16.25;;;;;17.00;55.53;101506.41;5075217;27;45532;-77
2021/09/23 03:06:01;;;;;;;;;21.50;18.00;;;;;16.91;55.97;101487.78;5075815;27;45599;-78
2021/09/23 03:08:26;;;;;;;;;16.75;16.00;;;;;16.90;55.61;101483.47;5076721;28;46743;-81
2021/09/23 03:10:52;;;;;;;;;21.75;16.25;;;;;16.95;56.13;101487.41;5092246;27;46277;-80
2021/09/23 03:13:17;;;;;;;;;18.50;17.75;;;;;16.89;55.77;101490.59;5076497;27;45772;-79
2021/09/23 03:19:05;;;;;;;;;21.00;19.00;;;;;16.68;56.12;101474.66;5075764;28;46014;-80
2021/09/23 03:21:30;;;;;;;;;19.50;16.25;;;;;16.73;56.39;101485.69;5075847;27;45510;-84
2021/09/23 03:23:55;;;;;;;;;20.00;17.75;;;;;16.67;56.34;101478.28;5076734;28;45463;-82
2021/09/23 03:26:21;;;;;;;;;19.75;18.75;;;;;16.49;56.53;101458.59;5077050;27;45581;-75
2021/09/23 03:28:47;;;;;;;;;16.75;16.00;;;;;16.59;56.43;101479.88;5076121;27;45695;-78
2021/09/23 03:31:12;;;;;;;;;18.75;17.75;;;;;16.60;56.54;101479.75;5076566;27;45714;-78
2021/09/23 03:33:38;;;;;;;;;19.75;16.75;;;;;16.48;56.53;101472.78;5075626;27;45561;-77
2021/09/23 03:36:04;;;;;;;;;18.25;17.75;;;;;16.52;57.06;101479.50;5075330;27;45645;-77
2021/09/23 03:38:30;;;;;;;;;22.50;20.00;;;;;16.48;56.96;101477.25;5074862;27;46418;-77
2021/09/23 03:40:55;;;;;;;;;18.50;18.25;;;;;16.43;57.18;101469.69;5075196;27;45666;-81
2021/09/23 03:43:21;;;;;;;;;18.50;17.00;;;;;16.30;57.06;101450.50;5075802;27;45707;-78
2021/09/23 03:49:08;;;;;;;;;20.00;18.75;;;;;16.16;57.16;101442.84;5076289;28;45814;-77
2021/09/23 03:51:33;;;;;;;;;19.00;18.50;;;;;16.14;57.44;101444.78;5077250;27;46363;-78
2021/09/23 03:53:59;;;;;;;;;19.25;17.00;;;;;16.23;57.53;101463.38;5076382;27;45709;-77
2021/09/23 03:56:24;;;;;;;;;21.00;18.75;;;;;16.19;57.67;101463.75;5077167;27;45636;-79
2021/09/23 03:58:49;;;;;;;;;20.00;18.50;;;;;16.17;57.55;101465.69;5076898;27;46520;-79
2021/09/23 04:04:36;;;;;;;;;16.50;15.75;;;;;16.12;57.67;101467.84;5068086;28;45741;-77
2021/09/23 04:07:02;;;;;;;;;19.50;19.00;;;;;16.10;57.94;101470.63;5078136;27;45579;-75
2021/09/23 04:09:27;;;;;;;;;21.25;20.75;;;;;16.09;58.13;101466.28;5077777;27;45771;-78
2021/09/23 04:11:53;;;;;;;;;39.25;34.75;;;;;16.07;58.17;101462.09;5078362;27;45754;-78
2021/09/23 04:14:18;;;;;;;;;22.50;20.25;;;;;16.06;58.05;101484.19;5078235;27;45547;-80
2021/09/23 04:16:44;;;;;;;;;19.75;17.50;;;;;15.95;58.25;101461.28;5078592;27;45886;-80
2021/09/23 04:19:09;;;;;;;;;22.75;20.00;;;;;16.00;58.04;101460.91;5078967;27;46161;-78
2021/09/23 04:21:35;;;;;;;;;19.50;18.50;;;;;16.04;58.32;101472.91;5080251;27;46098;-77
2021/09/23 04:24:00;;;;;;;;;19.75;18.50;;;;;15.91;58.33;101444.00;5079980;27;45783;-79
2021/09/23 04:26:25;;;;;;;;;20.00;16.75;;;;;15.94;58.35;101444.56;5081322;27;45764;-81
2021/09/23 04:28:51;;;;;;;;;22.00;20.75;;;;;16.04;58.49;101471.09;5079990;27;45678;-81
2021/09/23 04:34:39;;;;;;;;;21.00;20.00;;;;;15.93;58.85;101471.97;5077902;28;45859;-76
2021/09/23 04:37:05;;;;;;;;;19.50;18.75;;;;;15.84;58.57;101459.47;5077782;27;45684;-77
2021/09/23 04:39:30;;;;;;;;;20.00;19.00;;;;;15.93;58.71;101471.97;5077770;28;45652;-78
2021/09/23 04:41:56;;;;;;;;;18.75;18.00;;;;;15.91;58.79;101470.41;5077451;27;45695;-77
2021/09/23 04:44:21;;;;;;;;;18.25;17.50;;;;;15.90;58.94;101476.66;5077776;27;45533;-79
2021/09/23 04:46:47;;;;;;;;;21.75;18.50;;;;;15.76;59.16;101458.44;5082172;27;45816;-77
2021/09/23 04:49:13;;;;;;;;;19.50;17.75;;;;;15.88;59.06;101471.47;5078554;28;45622;-79
2021/09/23 04:51:40;;;;;;;;;22.00;18.50;;;;;15.86;59.12;101481.34;5079273;27;46061;-80
2021/09/23 04:54:06;;;;;;;;;21.50;18.50;;;;;15.84;59.08;101477.13;5080644;27;45608;-80
2021/09/23 04:56:32;;;;;;;;;19.00;18.00;;;;;15.81;59.09;101477.41;5081620;28;45674;-77
2021/09/23 04:58:58;;;;;;;;;25.50;21.25;;;;;15.78;59.43;101477.63;5080271;27;45525;-78
2021/09/23 05:04:45;;;;;;;;;21.00;20.00;;;;;15.68;59.63;101481.94;5076789;28;45836;-80
2021/09/23 05:07:11;;;;;;;;;17.00;16.00;;;;;15.63;59.92;101484.13;5076945;27;45475;-77
2021/09/23 05:09:37;;;;;;;;;18.00;17.00;;;;;15.58;59.84;101481.00;5076116;27;46571;-78
2021/09/23 05:12:04;;;;;;;;;20.00;18.00;;;;;15.53;59.86;101486.63;5075985;27;47046;-77
2021/09/23 05:14:29;;;;;;;;;18.00;17.00;;;;;15.40;60.03;101486.72;5077394;27;45773;-76
2021/09/23 05:16:56;;;;;;;;;19.00;17.75;;;;;15.32;60.04;101485.63;5080290;27;45791;-81
2021/09/23 05:19:23;;;;;;;;;19.00;18.25;;;;;15.38;60.00;101508.94;5082841;27;45761;-87
2021/09/23 05:21:49;;;;;;;;;20.75;19.00;;;;;15.37;60.38;101512.53;5095995;27;46116;-77
2021/09/23 05:24:16;;;;;;;;;18.25;17.50;;;;;15.21;60.09;101494.38;5077302;27;45466;-76
2021/09/23 05:26:43;;;;;;;;;17.50;16.00;;;;;15.16;60.45;101498.31;5075748;28;45656;-77
2021/09/23 05:29:09;;;;;;;;;18.50;17.25;;;;;15.21;60.20;101509.38;5077188;27;45673;-78
2021/09/23 05:34:55;;;;;;;;;20.75;17.50;;;;;15.05;60.68;101507.06;5084683;28;45478;-88
2021/09/23 05:37:21;;;;;;;;;19.50;17.75;;;;;15.00;60.75;101509.19;5085877;27;45435;-87
2021/09/23 05:39:46;;;;;;;;;13.50;13.00;;;;;15.01;61.13;101510.84;5086278;27;46783;-84
2021/09/23 05:42:12;;;;;;;;;29.75;27.25;;;;;14.97;60.77;101514.69;5084182;28;46765;-85
2021/09/23 05:44:37;;;;;;;;;18.25;17.25;;;;;14.95;60.66;101521.91;5080753;27;45604;-77
2021/09/23 05:47:03;;;;;;;;;18.00;17.00;;;;;14.90;61.19;101531.94;5079272;27;45717;-82
2021/09/23 05:49:28;;;;;;;;;21.25;20.25;;;;;14.77;61.06;101502.16;5080095;27;46098;-88
2021/09/23 05:51:56;;;;;;;;;20.50;19.00;;;;;14.87;60.99;101525.09;5087408;27;46061;-86
2021/09/23 05:54:22;;;;;;;;;20.75;17.25;;;;;14.82;61.22;101510.56;5086646;27;45739;-88
2021/09/23 05:56:47;;;;;;;;;21.00;18.00;;;;;14.87;61.37;101530.38;5087393;27;45605;-86
2021/09/23 05:59:14;;;;;;;;;23.75;19.00;;;;;14.85;61.34;101529.63;5083183;27;45645;-83
2021/09/23 06:05:01;;;;;;;;;22.50;18.00;;;;;14.80;61.38;101533.56;5081427;28;45576;-81
2021/09/23 06:07:27;;;;;;;;;19.50;17.75;;;;;14.76;61.48;101538.22;5079186;27;45633;-79
2021/09/23 06:09:52;;;;;;;;;20.25;19.00;;;;;14.70;61.57;101523.69;5078427;27;45460;-88
2021/09/23 06:12:18;;;;;;;;;17.75;15.75;;;;;14.78;61.31;101535.50;5080483;27;45487;-83
2021/09/23 06:14:43;;;;;;;;;29.75;25.00;;;;;14.75;61.42;101527.78;5075958;27;45632;-77
2021/09/23 06:20:30;;;;;;;;;18.00;18.00;;;;;14.79;61.72;101540.63;5074831;28;45675;-77
2021/09/23 06:22:55;;;;;;;;;18.75;17.25;;;;;14.81;61.38;101535.25;5073834;27;45654;-77
2021/09/23 06:25:22;;;;;;;;;19.25;18.50;;;;;14.85;61.84;101541.97;5075141;27;45669;-78
2021/09/23 06:27:47;;;;;;;;;21.50;19.00;;;;;14.86;61.53;101544.50;5075032;27;45603;-78
2021/09/23 06:30:14;;;;;;;;;21.75;18.75;;;;;14.89;61.70;101540.81;5074606;27;45517;-78
2021/09/23 06:32:39;;;;;;;;;20.25;18.25;;;;;14.92;61.60;101541.41;5074791;27;46074;-76
2021/09/23 06:35:05;;;;;;;;;17.75;16.75;;;;;14.96;61.45;101552.56;5074885;27;45607;-77
2021/09/23 06:37:31;;;;;;;;;22.00;17.25;;;;;14.89;61.47;101544.31;5075189;27;45751;-75
2021/09/23 06:39:56;;;;;;;;;25.00;21.25;;;;;14.98;61.50;101556.81;5074753;28;45506;-77
2021/09/23 06:42:21;;;;;;;;;24.50;22.25;;;;;15.00;61.74;101551.41;5073161;28;47278;-75
2021/09/23 06:44:47;;;;;;;;;22.50;22.00;;;;;15.02;61.63;101560.88;5074865;27;45515;-76
2021/09/23 06:50:34;;;;;;;;;18.50;17.00;;;;;15.06;61.71;101562.34;5074203;28;45479;-78
2021/09/23 06:53:00;;;;;;;;;21.50;20.00;;;;;15.07;61.49;101560.53;5074885;27;45608;-77
2021/09/23 06:55:25;;;;;;;;;22.50;21.25;;;;;15.08;61.60;101565.72;5074609;28;45482;-78
2021/09/23 06:57:51;;;;;;;;;19.25;18.75;;;;;15.09;61.62;101559.50;5074754;27;45647;-78
2021/09/23 07:00:16;;;;;;;;;24.75;21.50;;;;;15.12;61.50;101563.69;5074645;27;46321;-78
2021/09/23 07:02:42;;;;;;;;;22.75;20.00;;;;;15.15;61.54;101559.97;5072917;28;47181;-78
2021/09/23 07:05:08;;;;;;;;;22.75;21.25;;;;;15.19;61.74;101554.34;5074286;27;45584;-75
2021/09/23 07:07:33;;;;;;;;;23.00;21.50;;;;;15.23;61.51;101541.75;5075313;27;45928;-77
2021/09/23 07:10:00;;;;;;;;;24.25;23.00;;;;;15.17;61.57;101521.13;5074520;27;46213;-76
2021/09/23 07:12:26;;;;;;;;;28.25;27.75;;;;;15.20;61.60;101523.53;5074207;27;46997;-77
2021/09/23 07:14:51;;;;;;;;;22.00;20.50;;;;;15.32;61.48;101543.72;5074509;27;45509;-78
2021/09/23 07:20:38;;;;;;;;;25.25;21.25;;;;;15.25;61.36;101516.94;5073938;28;45636;-78
2021/09/23 07:23:04;;;;;;;;;25.00;23.25;;;;;15.47;61.25;101545.19;5074240;27;45744;-77
2021/09/23 07:25:30;;;;;;;;;22.75;21.50;;;;;15.39;61.20;101529.06;5074337;27;45759;-77
2021/09/23 07:27:57;;;;;;;;;23.75;21.50;;;;;15.55;61.37;101542.81;5074426;27;45779;-77
2021/09/23 07:30:23;;;;;;;;;26.75;24.00;;;;;15.56;61.29;101541.00;5073978;28;46680;-78
2021/09/23 07:32:49;;;;;;;;;27.75;23.00;;;;;15.61;61.29;101550.25;5074218;27;46216;-77
2021/09/23 07:35:15;;;;;;;;;27.00;25.00;;;;;15.56;61.13;101533.09;5077605;27;45581;-76
2021/09/23 07:37:41;;;;;;;;;27.75;25.00;;;;;15.66;60.96;101536.69;5077756;28;45608;-77
2021/09/23 07:40:09;;;;;;;;;28.25;25.25;;;;;15.58;60.99;101510.06;5077612;27;45445;-77
2021/09/23 07:42:35;;;;;;;;;26.75;23.25;;;;;15.74;61.33;101531.69;5077604;28;46517;-77
2021/09/23 07:45:02;;;;;;;;;28.75;26.25;;;;;15.77;61.15;101529.63;5077858;27;45802;-77
2021/09/23 07:50:49;;;;;;;;;26.25;24.75;;;;;15.78;61.11;101527.81;5076984;28;46039;-78
2021/09/23 07:53:15;;;;;;;;;33.25;27.75;;;;;15.81;61.08;101520.53;5077020;27;46511;-78
2021/09/23 07:55:40;;;;;;;;;28.75;26.75;;;;;15.90;61.17;101529.50;5075753;28;45604;-78
2021/09/23 07:58:06;;;;;;;;;26.00;24.00;;;;;15.90;60.86;101522.44;5077403;27;45807;-77
2021/09/23 08:00:31;;;;;;;;;31.75;27.00;;;;;15.99;61.08;101535.88;5077133;27;45688;-78
2021/09/23 08:02:56;;;;;;;;;30.25;26.00;;;;;16.02;60.94;101538.28;5077214;28;45559;-77
2021/09/23 08:05:22;;;;;;;;;30.25;25.50;;;;;16.06;60.99;101537.06;5076937;27;45564;-77
2021/09/23 08:07:49;;;;;;;;;36.25;28.75;;;;;16.09;60.84;101537.66;5077218;27;45465;-77
2021/09/23 08:10:15;;;;;;;;;28.50;26.25;;;;;16.12;61.05;101534.78;5078487;27;46790;-77
2021/09/23 08:12:41;;;;;;;;;27.75;26.25;;;;;16.01;60.66;101511.00;5081383;27;46149;-79
2021/09/23 08:15:07;;;;;;;;;27.00;25.25;;;;;16.20;60.71;101531.50;5082514;27;45925;-77
2021/09/23 08:20:55;;;;;;;;;25.50;23.75;;;;;16.23;60.85;101520.72;5082737;28;46142;-78
2021/09/23 08:23:21;;;;;;;;;28.50;27.75;;;;;16.34;60.62;101533.91;5081799;27;46400;-79
2021/09/23 08:25:46;;;;;;;;;27.00;24.75;;;;;16.38;60.53;101532.69;5077949;27;45614;-78
2021/09/23 08:28:12;;;;;;;;;25.75;22.50;;;;;16.46;60.43;101538.22;5076887;27;45576;-77
2021/09/23 08:30:38;;;;;;;;;25.25;23.00;;;;;16.47;60.33;101528.47;5076699;27;45887;-76
2021/09/23 08:33:03;;;;;;;;;25.75;23.50;;;;;16.50;60.63;101526.44;5076756;27;46841;-77
2021/09/23 08:35:29;;;;;;;;;27.50;26.25;;;;;16.57;60.63;101526.78;5076828;27;45652;-78
2021/09/23 08:37:54;;;;;;;;;27.50;26.25;;;;;16.51;60.15;101511.41;5077740;27;45510;-76
2021/09/23 08:40:20;;;;;;;;;29.50;26.00;;;;;16.61;59.96;101523.78;5077170;27;46288;-76
2021/09/23 08:42:46;;;;;;;;;28.50;25.25;;;;;16.64;60.44;101527.97;5076975;27;46614;-77
2021/09/23 08:45:14;;;;;;;;;29.25;25.75;;;;;16.70;60.31;101540.69;5075718;27;45626;-76
2021/09/23 08:51:02;;;;;;;;;32.00;28.75;;;;;16.76;59.86;101533.09;5076278;28;45680;-77
2021/09/23 08:53:29;;;;;;;;;28.00;24.50;;;;;16.77;60.11;101529.50;5076888;27;46184;-76
2021/09/23 08:55:54;;;;;;;;;26.50;25.25;;;;;16.86;60.25;101540.28;5076594;27;45900;-78
2021/09/23 08:58:20;;;;;;;;;28.00;25.25;;;;;16.88;59.67;101538.34;5076652;27;45601;-77
2021/09/23 09:01:03;;;;;;;;;24.25;21.25;;;;;16.94;59.51;101538.69;5076260;27;47294;-78
2021/09/23 09:03:32;;;;;;;;;18.50;17.00;;;;;16.97;59.26;101538.41;5076361;27;46475;-78
2021/09/23 09:05:57;;;;;;;;;25.50;23.25;;;;;17.05;59.65;101549.22;5076043;27;45552;-77
2021/09/23 09:08:28;;;;;;;;;19.75;19.00;;;;;17.09;59.28;101553.31;5076739;27;45779;-76
2021/09/23 09:10:54;;;;;;;;;23.75;21.75;;;;;17.13;59.25;101544.13;5076305;27;46270;-77
2021/09/23 09:13:19;;;;;;;;;21.75;18.50;;;;;17.13;58.87;101537.97;5076305;27;45991;-76
2021/09/23 09:15:45;;;;;;;;;19.50;19.25;;;;;17.23;59.24;101549.47;5076467;27;45666;-76
2021/09/23 09:21:33;;;;;;;;;26.25;22.50;;;;;17.30;58.68;101533.91;5076267;28;45569;-77
2021/09/23 09:24:01;;;;;;;;;25.25;23.75;;;;;17.32;58.44;101530.19;5076342;27;46636;-78
2021/09/23 09:26:32;;;;;;;;;27.25;24.50;;;;;17.41;58.92;101525.91;5075867;27;45461;-77
2021/09/23 09:29:01;;;;;;;;;24.75;23.00;;;;;17.48;58.36;101537.66;5075895;27;45599;-78
2021/09/23 09:31:27;;;;;;;;;24.25;23.25;;;;;17.54;58.58;101532.66;5075661;27;46671;-78
2021/09/23 09:33:56;;;;;;;;;23.75;21.50;;;;;17.60;58.68;101536.63;5075996;27;46198;-78
2021/09/23 09:36:26;;;;;;;;;17.75;16.25;;;;;17.60;58.34;101531.34;5076133;27;45711;-78
2021/09/23 09:38:54;;;;;;;;;17.00;15.50;;;;;17.73;58.22;101539.91;5076114;27;45631;-78
2021/09/23 09:41:24;;;;;;;;;16.50;14.50;;;;;17.78;58.00;101540.38;5075767;27;45598;-77
2021/09/23 09:43:51;;;;;;;;;14.00;12.00;;;;;17.83;57.33;101534.66;5076060;27;45451;-78
2021/09/23 09:46:28;;;;;;;;;15.50;15.00;;;;;17.88;57.26;101529.78;5076053;27;45719;-76
2021/09/23 09:48:54;;;;;;;;;14.50;13.75;;;;;17.92;57.26;101520.63;5076171;27;45600;-77
2021/09/23 09:51:43;;;;;;;;;16.25;15.00;;;;;17.97;56.86;101529.00;5075687;27;46255;-77
2021/09/23 09:54:14;;;;;;;;;16.00;15.00;;;;;17.96;57.08;101516.72;5075294;27;46389;-77
2021/09/23 09:56:45;;;;;;;;;14.00;12.75;;;;;18.05;56.48;101529.16;5074987;27;45687;-76
2021/09/23 09:59:15;;;;;;;;;15.00;14.00;;;;;18.09;56.36;101517.31;5075827;27;45756;-78
2021/09/23 10:01:49;;;;;;;;;16.00;15.50;;;;;18.14;56.81;101515.09;5075631;27;45590;-77
2021/09/23 10:04:16;;;;;;;;;19.75;17.00;;;;;18.18;56.56;101521.81;5075400;28;45950;-77
2021/09/23 10:06:42;;;;;;;;;17.75;15.25;;;;;18.22;56.65;101522.38;5075495;27;45687;-78
2021/09/23 10:09:10;;;;;;;;;17.75;16.75;;;;;18.26;56.14;101518.47;5075802;27;45532;-76
2021/09/23 10:11:38;;;;;;;;;18.25;18.25;;;;;18.31;56.28;101517.09;5075166;27;45793;-77
2021/09/23 10:14:04;;;;;;;;;17.00;15.25;;;;;18.35;56.40;101507.88;5074987;27;46227;-76
2021/09/23 10:16:31;;;;;;;;;19.25;16.25;;;;;18.25;56.28;101485.78;5075075;27;45573;-78
2021/09/23 10:18:57;;;;;;;;;18.00;15.00;;;;;18.41;56.14;101511.78;5075549;27;45622;-78
2021/09/23 10:21:26;;;;;;;;;15.25;15.25;;;;;18.43;55.72;101518.66;5075270;27;46797;-78
2021/09/23 10:23:53;;;;;;;;;17.25;16.00;;;;;18.49;55.71;101513.75;5075214;27;45969;-78
2021/09/23 10:26:24;;;;;;;;;15.25;14.25;;;;;18.53;55.76;101517.81;5075306;28;45727;-77
2021/09/23 10:28:50;;;;;;;;;13.00;13.00;;;;;18.33;55.48;101466.53;5077827;27;45537;-78
2021/09/23 10:31:18;;;;;;;;;16.00;15.00;;;;;18.50;54.94;101486.25;5081756;27;45468;-78
2021/09/23 10:33:45;;;;;;;;;14.75;14.00;;;;;18.55;55.01;101486.72;5081855;27;46145;-77
2021/09/23 10:36:10;;;;;;;;;18.75;17.25;;;;;18.61;55.00;101488.81;5080759;28;45644;-76
2021/09/23 10:38:36;;;;;;;;;15.25;15.00;;;;;18.64;55.11;101488.50;5080740;27;45539;-77
2021/09/23 10:41:02;;;;;;;;;15.50;15.00;;;;;18.73;54.77;101487.69;5078703;27;46946;-77
2021/09/23 10:43:29;;;;;;;;;16.00;15.25;;;;;18.78;54.69;101483.66;5075594;27;45559;-78
2021/09/23 10:45:56;;;;;;;;;14.50;14.00;;;;;18.84;54.22;101482.22;5075621;27;45582;-78
2021/09/23 10:51:43;;;;;;;;;16.50;15.50;;;;;18.80;54.25;101459.59;5074307;28;45982;-77
2021/09/23 10:54:09;;;;;;;;;15.75;14.75;;;;;18.99;53.91;101477.34;5074885;27;46190;-77
2021/09/23 10:56:34;;;;;;;;;19.00;16.50;;;;;19.03;53.62;101468.94;5074745;27;45575;-77
2021/09/23 10:59:01;;;;;;;;;14.75;13.25;;;;;19.04;53.70;101457.34;5074637;27;45486;-77
2021/09/23 11:01:32;;;;;;;;;17.75;16.50;;;;;19.11;53.36;101458.41;5074755;27;45692;-77
2021/09/23 11:04:01;;;;;;;;;14.50;14.25;;;;;19.20;53.50;101451.41;5074306;27;46074;-78
2021/09/23 11:06:46;;;;;;;;;18.00;14.75;;;;;19.24;53.32;101444.81;5074591;28;45606;-77
2021/09/23 11:09:23;;;;;;;;;18.00;15.25;;;;;19.27;53.29;101444.56;5073366;28;45606;-78
2021/09/23 11:11:57;;;;;;;;;13.50;13.50;;;;;19.31;53.40;101435.31;5074271;27;45643;-76
2021/09/23 11:14:25;;;;;;;;;14.00;13.50;;;;;19.35;53.43;101435.84;5074867;27;46003;-78
2021/09/23 11:16:52;;;;;;;;;18.25;14.50;;;;;19.39;53.29;101435.41;5074142;28;45676;-78
2021/09/23 11:19:20;;;;;;;;;15.50;14.50;;;;;19.44;53.56;101440.28;5074345;27;45764;-78
2021/09/23 11:21:52;;;;;;;;;15.50;14.00;;;;;19.48;52.86;101433.75;5074338;27;46520;-77
2021/09/23 11:24:20;;;;;;;;;15.25;14.75;;;;;19.43;53.00;101422.69;5074022;27;46000;-78
2021/09/23 11:26:46;;;;;;;;;9.00;8.00;;;;;19.56;52.80;101428.50;5074163;28;45554;-77
2021/09/23 11:29:12;;;;;;;;;16.50;14.25;;;;;19.61;52.66;101424.44;5074333;28;45773;-78
2021/09/23 11:31:45;;;;;;;;;15.50;13.50;;;;;19.66;52.54;101419.50;5073902;27;45595;-77
2021/09/23 11:34:10;;;;;;;;;15.75;14.75;;;;;19.70;52.57;101422.72;5073887;27;46226;-77
2021/09/23 11:36:41;;;;;;;;;17.25;15.50;;;;;19.74;51.90;101424.09;5073669;27;45792;-77
2021/09/23 11:39:17;;;;;;;;;15.25;14.00;;;;;19.75;52.00;101420.47;5074262;28;45734;-79
2021/09/23 11:41:43;;;;;;;;;11.75;11.50;;;;;19.79;52.11;101407.69;5073835;27;46474;-76
2021/09/23 11:44:25;;;;;;;;;15.50;14.25;;;;;19.81;51.82;101406.53;5074038;27;45625;-77
2021/09/23 11:46:56;;;;;;;;;15.75;14.75;;;;;19.88;51.93;101410.28;5073832;28;45620;-77
2021/09/23 11:49:21;;;;;;;;;16.75;14.75;;;;;19.86;51.45;101398.13;5073958;27;45535;-76
2021/09/23 11:51:48;;;;;;;;;15.00;14.00;;;;;19.97;51.55;101421.88;5073699;27;45652;-77
2021/09/23 11:54:19;;;;;;;;;15.00;13.00;;;;;20.01;51.67;101420.56;5073728;27;46034;-77
2021/09/23 11:56:45;;;;;;;;;14.25;13.00;;;;;20.01;51.91;101421.41;5073553;27;45559;-78
2021/09/23 11:59:18;;;;;;;;;14.50;13.50;;;;;20.08;51.02;101421.66;5073994;27;45792;-77
2021/09/23 12:01:44;;;;;;;;;10.00;8.25;;;;;20.11;50.99;101416.84;5073750;27;46472;-77
2021/09/23 12:04:13;;;;;;;;;16.25;14.75;;;;;20.10;50.37;101401.88;5073828;27;45616;-78
2021/09/23 12:06:38;;;;;;;;;16.00;16.00;;;;;20.13;50.75;101401.56;5074224;28;45592;-76
2021/09/23 12:09:09;;;;;;;;;14.25;13.50;;;;;20.18;50.79;101392.31;5074469;27;45685;-78
2021/09/23 12:11:34;;;;;;;;;13.50;13.00;;;;;20.21;50.54;101394.66;5073567;27;45604;-77
2021/09/23 12:14:06;;;;;;;;;17.75;13.25;;;;;20.33;50.31;101406.78;5073667;27;45927;-78
2021/09/23 12:16:32;;;;;;;;;17.50;16.25;;;;;20.38;50.01;101401.84;5073452;27;45577;-78
2021/09/23 12:22:34;;;;;;;;;14.25;13.75;;;;;20.45;50.06;101402.91;5076796;28;45588;-77